KADS

Addison Airport

Dallas, Texas, USA
METAR KADS 171747Z 07008G21KT 10SM BKN048 OVC060 13/06 A3038
Observed Flight Rules
Oct-17 @ 17:47 UTC (an hour ago) Visual Flight Rules
Wind Visibility Clouds
70° at 8 knots
 Gusting to 21 knots
10 miles
  • Broken at 4,800' AGL
  • Overcast at 6,000' AGL
Temperatures Readings
Current 13°C / 55°F
Dewpoint 6°C / 43°F
Humidity 63%
Altimeter 30.38" Hg
Pressure 1029 hPa
Elevation 196
METAR KADS 171747Z 07008G21KT 10SM BKN048 OVC060 13/06 A3038
Observed Flight Rules
Oct-17 @ 17:47 UTC
(an hour ago)
VFR
Wind Visibility
70° at 8 knots
 Gusting to 21 knots
10 miles
Clouds
  • Broken at 4,800' AGL
  • Overcast at 6,000' AGL
Temperature Dewpoint
13°C / 55°F 6°C / 43°F
Humidity Altimeter Pressure
63% 30.38" Hg 1029 hPa